Time;durP1;ratioP1;P1;durP2;ratioP2;P2;SDS_P1;SDS_P2;PMS_P1;PMS_P2;Temp;Humidity;BMP_temperature;BMP_pressure;BME280_temperature;BME280_humidity;BME280_pressure;Samples;Min_cycle;Max_cycle;Signal;HPM_P1;HPM_P2
2023/09/09 00:00:57;;;;;;;9.20;5.53;;;18.70;99.90;;;;;;4991352;28;20038;-55
2023/09/09 00:03:24;;;;;;;10.82;6.40;;;18.70;99.90;;;;;;4989882;28;20038;-55
2023/09/09 00:05:50;;;;;;;10.43;6.43;;;18.60;99.90;;;;;;4991546;28;20030;-54
2023/09/09 00:08:16;;;;;;;11.70;6.22;;;18.60;99.90;;;;;;4991337;28;20038;-55
2023/09/09 00:10:42;;;;;;;9.30;6.22;;;18.60;99.90;;;;;;4992009;28;20018;-55
2023/09/09 00:13:09;;;;;;;11.68;6.85;;;18.60;99.90;;;;;;4992290;28;20030;-55
2023/09/09 00:15:35;;;;;;;10.93;6.57;;;18.60;99.90;;;;;;4992799;28;20042;-54
2023/09/09 00:18:04;;;;;;;12.27;6.55;;;18.50;99.90;;;;;;4991866;28;20483;-55
2023/09/09 00:20:35;;;;;;;8.98;5.85;;;18.50;99.90;;;;;;4992224;28;20394;-52
2023/09/09 00:23:07;;;;;;;10.30;6.40;;;18.50;99.90;;;;;;4990974;28;20100;-56
2023/09/09 00:25:40;;;;;;;10.95;6.25;;;18.50;99.90;;;;;;4990708;28;20134;-52
2023/09/09 00:28:07;;;;;;;9.88;5.50;;;18.40;99.90;;;;;;4993496;28;20041;-53
2023/09/09 00:30:34;;;;;;;8.55;5.53;;;18.40;99.90;;;;;;4992799;28;20080;-54
2023/09/09 00:33:00;;;;;;;9.88;5.93;;;18.40;99.90;;;;;;4976763;28;20467;-57
2023/09/09 00:35:26;;;;;;;9.52;6.32;;;18.30;99.90;;;;;;4976725;28;20035;-52
2023/09/09 00:37:52;;;;;;;8.93;5.30;;;18.30;99.90;;;;;;4976414;28;20034;-55
2023/09/09 00:40:17;;;;;;;12.23;6.13;;;18.30;99.90;;;;;;4993667;28;20056;-55
2023/09/09 00:42:43;;;;;;;8.05;5.00;;;18.20;99.90;;;;;;4976464;28;20076;-56
2023/09/09 00:45:09;;;;;;;8.38;4.75;;;18.20;99.90;;;;;;4993949;28;20356;-54
2023/09/09 00:47:35;;;;;;;8.88;5.13;;;18.10;99.90;;;;;;4993607;28;20488;-51
2023/09/09 00:50:03;;;;;;;11.88;6.10;;;18.10;99.90;;;;;;4976158;28;20541;-56
2023/09/09 00:52:29;;;;;;;7.85;4.35;;;18.10;99.90;;;;;;4993807;28;20533;-55
2023/09/09 00:54:55;;;;;;;7.78;5.07;;;18.10;99.90;;;;;;4976132;28;20038;-57
2023/09/09 00:57:20;;;;;;;10.18;5.45;;;18.00;99.90;;;;;;4975981;28;20034;-52
2023/09/09 00:59:49;;;;;;;13.02;5.30;;;18.00;99.90;;;;;;4976215;28;20084;-54
2023/09/09 01:02:15;;;;;;;8.57;4.80;;;18.00;99.90;;;;;;4976378;28;20030;-57
2023/09/09 01:04:40;;;;;;;11.02;5.97;;;17.90;99.90;;;;;;4993790;28;20030;-54
2023/09/09 01:07:07;;;;;;;8.57;5.40;;;17.90;99.90;;;;;;4993564;28;20398;-55
2023/09/09 01:09:33;;;;;;;10.90;5.60;;;17.90;99.90;;;;;;4992977;28;20066;-53
2023/09/09 01:11:59;;;;;;;8.52;5.47;;;17.90;99.90;;;;;;4993655;28;20113;-55
2023/09/09 01:14:25;;;;;;;9.07;5.47;;;17.80;99.90;;;;;;4975760;28;20165;-57
2023/09/09 01:16:53;;;;;;;9.63;5.25;;;17.80;99.90;;;;;;4992279;28;20041;-54
2023/09/09 01:19:27;;;;;;;9.90;5.15;;;17.80;99.90;;;;;;4975323;28;20041;-55
2023/09/09 01:21:54;;;;;;;12.38;5.60;;;17.80;99.90;;;;;;4993112;28;20398;-54
2023/09/09 01:24:20;;;;;;;9.60;5.35;;;17.70;99.90;;;;;;4993192;28;20470;-57
2023/09/09 01:26:46;;;;;;;8.75;5.07;;;17.70;99.90;;;;;;4993120;28;20113;-56
2023/09/09 01:29:13;;;;;;;9.45;5.20;;;17.70;99.90;;;;;;4975181;28;20117;-55
2023/09/09 01:31:39;;;;;;;8.30;4.90;;;17.70;99.90;;;;;;4991751;28;20570;-53
2023/09/09 01:34:04;;;;;;;9.60;5.53;;;17.70;99.90;;;;;;4992980;28;20446;-52
2023/09/09 01:36:30;;;;;;;11.50;5.90;;;17.60;99.90;;;;;;4992858;28;20034;-52
2023/09/09 01:38:56;;;;;;;10.50;5.93;;;17.60;99.90;;;;;;4974653;28;20061;-55
2023/09/09 01:41:22;;;;;;;7.93;4.90;;;17.60;99.90;;;;;;4991845;28;20034;-52
2023/09/09 01:43:48;;;;;;;8.25;4.82;;;17.60;99.90;;;;;;4991310;28;20072;-55
2023/09/09 01:46:14;;;;;;;9.18;5.25;;;17.50;99.90;;;;;;4975251;28;20065;-53
2023/09/09 01:48:39;;;;;;;9.15;5.20;;;17.50;99.90;;;;;;4974785;28;20077;-56
2023/09/09 01:51:06;;;;;;;8.30;5.28;;;17.50;99.90;;;;;;4992595;28;20026;-52
2023/09/09 01:53:31;;;;;;;9.32;5.15;;;17.50;99.90;;;;;;4975159;28;20130;-53
2023/09/09 01:55:58;;;;;;;10.65;5.30;;;17.50;99.90;;;;;;4992619;28;20106;-54
2023/09/09 01:58:24;;;;;;;8.73;4.60;;;17.50;99.90;;;;;;4990684;28;20030;-56
2023/09/09 02:00:49;;;;;;;10.82;5.45;;;17.40;99.90;;;;;;4974967;28;20030;-53
2023/09/09 02:03:15;;;;;;;9.13;5.05;;;17.40;99.90;;;;;;4992561;28;20209;-50
2023/09/09 02:05:41;;;;;;;8.85;4.97;;;17.40;99.90;;;;;;4974784;28;20487;-55
2023/09/09 02:08:07;;;;;;;9.55;5.43;;;17.40;99.90;;;;;;4974803;28;20110;-53
2023/09/09 02:10:32;;;;;;;9.65;5.13;;;17.40;99.90;;;;;;4992075;28;20030;-56
2023/09/09 02:12:58;;;;;;;8.57;5.30;;;17.40;99.90;;;;;;4990946;28;20081;-52
2023/09/09 02:15:25;;;;;;;9.02;5.22;;;17.40;99.90;;;;;;4990882;28;20030;-53
2023/09/09 02:17:51;;;;;;;9.57;5.38;;;17.40;99.90;;;;;;4992075;28;20054;-55
2023/09/09 02:20:17;;;;;;;7.50;4.72;;;17.40;99.90;;;;;;4974656;28;20478;-55
2023/09/09 02:22:42;;;;;;;9.85;5.10;;;17.40;99.90;;;;;;5017650;23;20061;-50
2023/09/09 02:25:08;;;;;;;8.48;4.82;;;17.40;99.90;;;;;;5019189;28;20030;-49
2023/09/09 02:27:34;;;;;;;8.52;5.22;;;17.40;99.90;;;;;;5017234;28;20025;-51
2023/09/09 02:30:01;;;;;;;10.38;6.05;;;17.40;99.90;;;;;;5000668;28;20447;-50
2023/09/09 02:32:27;;;;;;;9.60;5.25;;;17.50;99.90;;;;;;5000706;28;20026;-53
2023/09/09 02:34:53;;;;;;;7.95;4.95;;;17.50;99.90;;;;;;5000835;28;20097;-50
2023/09/09 02:37:20;;;;;;;8.98;5.20;;;17.40;99.90;;;;;;5000345;28;20402;-53
2023/09/09 02:39:50;;;;;;;10.07;5.25;;;17.50;99.90;;;;;;5000834;28;20034;-51
2023/09/09 02:42:21;;;;;;;10.45;5.45;;;17.50;99.90;;;;;;5001036;28;20068;-53
2023/09/09 02:44:50;;;;;;;10.35;5.50;;;17.50;99.90;;;;;;5000349;28;20103;-52
2023/09/09 02:47:17;;;;;;;8.30;5.20;;;17.60;99.90;;;;;;5000588;28;20098;-52
2023/09/09 02:49:45;;;;;;;8.60;4.53;;;17.60;99.90;;;;;;4999670;28;20018;-53
2023/09/09 02:52:11;;;;;;;7.20;4.28;;;17.60;99.90;;;;;;5017986;28;20029;-53
2023/09/09 02:54:39;;;;;;;11.27;5.18;;;17.70;99.90;;;;;;5000010;28;20034;-52
2023/09/09 02:57:05;;;;;;;7.40;4.53;;;17.70;99.90;;;;;;5000442;28;20433;-53
2023/09/09 02:59:35;;;;;;;12.18;5.70;;;17.70;99.90;;;;;;5000235;28;20486;-51
2023/09/09 03:02:04;;;;;;;8.65;4.38;;;17.70;99.90;;;;;;5000376;28;20029;-50
2023/09/09 03:04:30;;;;;;;9.52;4.60;;;17.70;99.90;;;;;;4999897;28;20034;-51
2023/09/09 03:06:56;;;;;;;7.50;5.00;;;17.70;99.90;;;;;;4983875;28;20030;-51
2023/09/09 03:09:22;;;;;;;9.20;4.55;;;17.70;99.90;;;;;;4999778;28;20030;-52
2023/09/09 03:11:48;;;;;;;9.02;4.50;;;17.70;99.90;;;;;;5000147;28;20087;-54
2023/09/09 03:14:14;;;;;;;8.48;4.90;;;17.70;99.90;;;;;;4999608;28;20485;-52
2023/09/09 03:16:39;;;;;;;7.57;4.72;;;17.70;99.90;;;;;;5015742;28;20046;-53
2023/09/09 03:19:05;;;;;;;9.25;4.60;;;17.80;99.90;;;;;;5015720;28;20040;-53
2023/09/09 03:21:30;;;;;;;9.10;5.00;;;17.80;99.90;;;;;;5015773;28;20106;-55
2023/09/09 03:23:57;;;;;;;9.77;4.85;;;17.90;99.90;;;;;;4998322;28;20398;-53
2023/09/09 03:26:23;;;;;;;8.70;5.15;;;17.90;99.90;;;;;;4981803;28;20092;-53
2023/09/09 03:28:50;;;;;;;7.90;4.40;;;17.90;99.90;;;;;;5014196;28;20045;-54
2023/09/09 03:31:16;;;;;;;8.07;4.75;;;17.90;99.90;;;;;;5016296;28;20030;-54
2023/09/09 03:33:41;;;;;;;8.95;4.68;;;17.90;99.90;;;;;;4997744;28;20033;-55
2023/09/09 03:36:08;;;;;;;8.00;5.03;;;18.00;99.90;;;;;;4997737;28;20025;-56
2023/09/09 03:38:37;;;;;;;8.48;5.30;;;17.90;99.90;;;;;;5013643;28;20038;-55
2023/09/09 03:41:06;;;;;;;7.47;4.60;;;17.90;99.90;;;;;;5014127;28;20109;-55
2023/09/09 03:43:35;;;;;;;9.80;4.85;;;17.80;99.90;;;;;;4997837;28;20041;-51
2023/09/09 03:46:00;;;;;;;8.07;4.63;;;17.70;99.90;;;;;;4998557;28;20127;-53
2023/09/09 03:48:26;;;;;;;7.82;4.90;;;17.60;99.90;;;;;;4997872;28;20061;-55
2023/09/09 03:50:57;;;;;;;8.77;4.80;;;17.60;99.90;;;;;;5015255;28;20050;-54
2023/09/09 03:53:24;;;;;;;8.15;4.68;;;17.50;99.90;;;;;;5014021;28;20232;-53
2023/09/09 03:55:49;;;;;;;8.90;5.10;;;17.40;99.90;;;;;;4997741;28;20559;-54
2023/09/09 03:58:15;;;;;;;10.32;4.85;;;17.40;99.90;;;;;;5014561;28;20037;-53
2023/09/09 04:00:41;;;;;;;7.47;4.90;;;17.30;99.90;;;;;;4999487;28;20038;-53
2023/09/09 04:03:07;;;;;;;9.48;5.22;;;17.20;99.90;;;;;;4986011;28;20037;-55
2023/09/09 04:05:33;;;;;;;10.07;5.07;;;17.20;99.90;;;;;;5002256;28;20056;-53
2023/09/09 04:08:03;;;;;;;7.97;4.80;;;17.10;99.90;;;;;;5001739;28;20036;-54
2023/09/09 04:10:29;;;;;;;9.35;5.00;;;17.10;99.90;;;;;;5018001;28;20181;-55
2023/09/09 04:12:54;;;;;;;11.23;5.38;;;17.00;99.90;;;;;;5001762;28;20029;-55
2023/09/09 04:15:20;;;;;;;7.95;5.03;;;17.00;99.90;;;;;;5001514;28;20034;-53
2023/09/09 04:17:46;;;;;;;8.27;5.18;;;17.00;99.90;;;;;;5001858;28;20037;-53
2023/09/09 04:20:11;;;;;;;8.80;5.40;;;16.90;99.90;;;;;;5001578;28;20084;-54
2023/09/09 04:22:38;;;;;;;8.00;4.70;;;16.90;99.90;;;;;;4986230;28;20112;-50
2023/09/09 04:25:04;;;;;;;10.20;5.60;;;16.90;99.90;;;;;;5001348;28;20053;-53
2023/09/09 04:27:31;;;;;;;7.43;5.10;;;16.90;99.90;;;;;;5002050;28;20587;-54
2023/09/09 04:29:57;;;;;;;10.30;5.30;;;16.80;99.90;;;;;;5001649;28;20061;-55
2023/09/09 04:32:23;;;;;;;7.88;5.15;;;16.80;99.90;;;;;;5018246;28;20037;-56
2023/09/09 04:34:49;;;;;;;8.52;5.28;;;16.80;99.90;;;;;;5001002;28;20050;-56
2023/09/09 04:37:16;;;;;;;9.43;6.05;;;16.70;99.90;;;;;;5019060;28;20479;-53
2023/09/09 04:39:41;;;;;;;9.27;5.40;;;16.70;99.90;;;;;;5017997;28;20386;-55
2023/09/09 04:42:07;;;;;;;8.77;4.78;;;16.70;99.90;;;;;;5018753;28;20036;-52
2023/09/09 04:44:33;;;;;;;9.95;5.63;;;16.70;99.90;;;;;;5001207;28;20400;-54
2023/09/09 04:46:59;;;;;;;10.80;5.70;;;16.60;99.90;;;;;;5019310;28;20105;-53
2023/09/09 04:49:24;;;;;;;9.70;5.00;;;16.60;99.90;;;;;;5018695;28;20072;-52
2023/09/09 04:51:51;;;;;;;9.18;4.90;;;16.60;99.90;;;;;;5001141;28;20029;-54
2023/09/09 04:54:18;;;;;;;10.73;5.32;;;16.60;99.90;;;;;;5018639;28;20025;-54
2023/09/09 04:56:44;;;;;;;8.80;4.82;;;16.60;99.90;;;;;;5001040;28;20129;-54
2023/09/09 04:59:10;;;;;;;11.20;5.22;;;16.60;99.90;;;;;;5000270;28;20056;-56
2023/09/09 05:01:35;;;;;;;8.98;5.22;;;16.60;99.90;;;;;;5017946;28;20050;-55
2023/09/09 05:04:01;;;;;;;11.43;5.35;;;16.60;99.90;;;;;;5000248;28;20398;-54
2023/09/09 05:06:27;;;;;;;10.10;5.57;;;16.60;99.90;;;;;;4984018;28;20049;-55
2023/09/09 05:08:52;;;;;;;8.73;5.10;;;16.60;99.90;;;;;;5015802;28;20034;-54
2023/09/09 05:11:19;;;;;;;10.40;5.70;;;16.60;99.90;;;;;;5000890;28;20048;-51
2023/09/09 05:13:45;;;;;;;8.20;4.95;;;16.60;99.90;;;;;;4999723;28;20026;-52
2023/09/09 05:16:10;;;;;;;9.05;5.15;;;16.60;99.90;;;;;;5016446;28;20084;-53
2023/09/09 05:18:36;;;;;;;8.98;5.30;;;16.70;99.90;;;;;;4999446;28;20038;-52
2023/09/09 05:21:02;;;;;;;7.72;5.00;;;16.70;99.90;;;;;;4999806;28;20111;-54
2023/09/09 05:23:27;;;;;;;11.38;5.18;;;16.80;99.90;;;;;;5015903;28;20041;-52
2023/09/09 05:25:53;;;;;;;10.32;5.25;;;16.80;99.90;;;;;;4999693;28;20038;-52
2023/09/09 05:28:19;;;;;;;10.07;5.25;;;16.90;99.90;;;;;;5017003;28;20025;-55
2023/09/09 05:30:44;;;;;;;10.25;5.47;;;17.00;99.90;;;;;;4998795;28;20034;-55
2023/09/09 05:33:11;;;;;;;8.95;5.32;;;17.00;99.90;;;;;;5015790;28;20038;-54
2023/09/09 05:35:36;;;;;;;10.10;5.32;;;17.10;99.90;;;;;;4998636;28;20038;-54
2023/09/09 05:38:02;;;;;;;6.88;4.82;;;17.20;99.90;;;;;;4998938;28;20481;-53
2023/09/09 05:40:28;;;;;;;9.50;5.10;;;17.30;99.90;;;;;;4997907;28;20030;-51
2023/09/09 05:42:53;;;;;;;8.32;4.35;;;17.40;99.90;;;;;;5015603;28;20087;-52
2023/09/09 05:45:19;;;;;;;10.85;5.32;;;17.50;99.90;;;;;;5015315;28;20030;-54
2023/09/09 05:47:45;;;;;;;11.95;5.30;;;17.50;99.90;;;;;;5014338;28;20410;-55
2023/09/09 05:50:12;;;;;;;8.70;5.00;;;17.70;99.90;;;;;;4998001;28;20115;-56
2023/09/09 05:52:38;;;;;;;9.27;4.88;;;17.80;99.90;;;;;;4996814;28;20021;-56
2023/09/09 05:55:05;;;;;;;8.10;4.55;;;18.00;99.90;;;;;;4997229;28;20096;-56
2023/09/09 05:57:34;;;;;;;7.78;4.30;;;18.00;99.90;;;;;;4998449;28;20034;-55
2023/09/09 06:00:02;;;;;;;7.75;4.25;;;18.10;99.90;;;;;;4999744;28;20117;-54
2023/09/09 06:02:38;;;;;;;6.65;4.18;;;18.20;99.90;;;;;;5018268;28;20136;-52
2023/09/09 06:05:05;;;;;;;8.32;4.97;;;18.30;99.90;;;;;;5017553;28;20442;-55
2023/09/09 06:07:32;;;;;;;9.73;5.22;;;18.30;99.90;;;;;;4999824;28;20025;-56
2023/09/09 06:09:58;;;;;;;7.60;4.55;;;18.40;99.90;;;;;;5016090;28;20514;-54
2023/09/09 06:12:25;;;;;;;7.15;4.28;;;18.40;99.90;;;;;;5000168;28;20022;-54
2023/09/09 06:14:50;;;;;;;9.55;4.93;;;18.50;99.90;;;;;;5000029;28;20079;-55
2023/09/09 06:17:16;;;;;;;7.00;4.63;;;18.50;99.90;;;;;;4983190;28;20061;-53
2023/09/09 06:19:43;;;;;;;7.00;4.22;;;18.60;99.90;;;;;;4984008;28;20038;-54
2023/09/09 06:22:09;;;;;;;7.60;4.50;;;18.70;99.90;;;;;;4999598;28;20045;-55
2023/09/09 06:24:35;;;;;;;8.13;4.72;;;18.80;99.90;;;;;;4982761;28;20034;-53
2023/09/09 06:27:00;;;;;;;7.57;4.68;;;18.80;99.90;;;;;;5016789;28;20026;-53
2023/09/09 06:29:27;;;;;;;10.35;5.53;;;18.90;99.90;;;;;;4998361;28;20080;-53
2023/09/09 06:31:53;;;;;;;12.75;6.63;;;18.90;99.90;;;;;;5015809;28;20040;-53
2023/09/09 06:34:18;;;;;;;7.93;4.55;;;19.00;99.90;;;;;;5015148;28;20037;-54
2023/09/09 06:36:44;;;;;;;10.38;5.45;;;19.20;99.90;;;;;;4999577;28;20038;-54
2023/09/09 06:39:10;;;;;;;8.52;4.63;;;19.20;99.90;;;;;;5015526;28;20030;-54
2023/09/09 06:41:35;;;;;;;8.27;4.50;;;19.30;99.90;;;;;;5017232;28;20030;-54
2023/09/09 06:44:01;;;;;;;6.88;4.20;;;19.40;99.90;;;;;;5015413;28;20084;-54
2023/09/09 06:46:27;;;;;;;7.78;4.82;;;19.50;99.90;;;;;;5017100;28;20504;-55
2023/09/09 06:48:52;;;;;;;6.57;4.20;;;19.60;99.90;;;;;;5015988;28;20030;-52
2023/09/09 06:51:18;;;;;;;6.80;4.35;;;19.70;99.90;;;;;;5017049;28;20037;-54
2023/09/09 06:53:43;;;;;;;9.07;4.20;;;19.80;99.90;;;;;;5016742;28;20034;-55
2023/09/09 06:56:10;;;;;;;6.38;4.03;;;19.90;99.90;;;;;;5016808;28;20492;-54
2023/09/09 06:58:35;;;;;;;11.43;5.82;;;20.00;99.90;;;;;;5016334;28;20466;-52
2023/09/09 07:01:02;;;;;;;7.63;4.45;;;20.10;99.90;;;;;;4998968;28;20110;-53
2023/09/09 07:03:28;;;;;;;8.32;4.38;;;20.30;99.90;;;;;;5016747;28;20041;-55
2023/09/09 07:05:54;;;;;;;8.07;4.10;;;20.50;99.90;;;;;;5016461;28;20034;-55
2023/09/09 07:08:19;;;;;;;5.85;3.80;;;20.60;99.90;;;;;;5014815;28;20041;-54
2023/09/09 07:10:49;;;;;;;8.63;4.28;;;20.70;99.90;;;;;;5017101;28;20033;-55
2023/09/09 07:13:15;;;;;;;8.30;5.10;;;20.80;99.90;;;;;;4998738;28;20034;-54
2023/09/09 07:15:41;;;;;;;8.45;4.40;;;20.90;99.90;;;;;;5016352;28;20080;-52
2023/09/09 07:18:07;;;;;;;7.68;4.18;;;21.00;99.90;;;;;;5016553;28;20037;-52
2023/09/09 07:20:32;;;;;;;7.20;4.28;;;21.10;99.90;;;;;;5016325;28;20486;-55
2023/09/09 07:22:58;;;;;;;7.10;4.55;;;21.20;99.90;;;;;;5016345;28;20045;-52
2023/09/09 07:25:23;;;;;;;7.10;4.25;;;21.30;99.90;;;;;;5016519;28;20111;-53
2023/09/09 07:27:49;;;;;;;7.03;4.32;;;21.40;99.90;;;;;;5016388;28;20026;-54
2023/09/09 07:30:14;;;;;;;7.50;4.28;;;21.50;99.90;;;;;;5016188;28;20029;-55
2023/09/09 07:32:40;;;;;;;6.70;4.28;;;21.60;99.90;;;;;;5015967;28;20033;-55
2023/09/09 07:35:06;;;;;;;8.57;4.75;;;21.70;99.90;;;;;;5016967;28;20034;-54
2023/09/09 07:37:32;;;;;;;6.63;3.78;;;21.70;99.90;;;;;;5020237;28;20030;-55
2023/09/09 07:40:00;;;;;;;8.90;5.90;;;21.80;99.90;;;;;;5020075;28;20474;-56
2023/09/09 07:42:26;;;;;;;8.75;4.80;;;22.00;99.90;;;;;;5020357;28;20029;-54
2023/09/09 07:44:53;;;;;;;14.93;7.57;;;22.10;99.90;;;;;;5019801;28;20470;-54
2023/09/09 07:47:20;;;;;;;7.07;4.18;;;22.30;99.90;;;;;;5020485;28;20022;-55
2023/09/09 07:49:46;;;;;;;9.48;5.72;;;22.50;99.90;;;;;;5002736;28;20041;-55
2023/09/09 07:52:12;;;;;;;6.78;4.25;;;22.60;99.90;;;;;;5003717;28;20367;-54
2023/09/09 07:54:37;;;;;;;7.63;4.63;;;22.70;99.90;;;;;;5020782;28;20080;-53
2023/09/09 07:57:03;;;;;;;10.50;5.78;;;22.70;99.90;;;;;;5020766;28;20034;-51
2023/09/09 07:59:29;;;;;;;11.35;6.45;;;22.80;99.90;;;;;;5020295;28;20260;-54
2023/09/09 08:01:55;;;;;;;11.30;5.50;;;23.00;99.90;;;;;;5020385;28;20038;-53
2023/09/09 08:04:22;;;;;;;8.77;4.25;;;23.00;99.90;;;;;;5019238;28;20045;-54
2023/09/09 08:06:50;;;;;;;7.40;5.05;;;23.20;99.90;;;;;;5019549;28;20033;-54
2023/09/09 08:09:16;;;;;;;9.37;6.10;;;23.30;99.90;;;;;;5018837;28;20064;-54
2023/09/09 08:11:41;;;;;;;8.82;4.57;;;23.30;99.90;;;;;;5019414;28;20072;-51
2023/09/09 08:14:07;;;;;;;7.45;4.15;;;23.40;99.90;;;;;;5001306;28;20084;-55
2023/09/09 08:16:32;;;;;;;8.02;4.32;;;23.50;99.90;;;;;;5020097;28;20473;-51
2023/09/09 08:18:59;;;;;;;10.25;4.63;;;23.60;99.90;;;;;;5019926;28;20449;-51
2023/09/09 08:21:24;;;;;;;7.45;4.10;;;23.60;99.90;;;;;;5002694;28;20054;-52
2023/09/09 08:23:52;;;;;;;6.60;3.97;;;23.70;99.90;;;;;;5018304;28;20033;-50
2023/09/09 08:26:18;;;;;;;9.75;4.88;;;23.70;99.90;;;;;;5019165;28;20120;-50
2023/09/09 08:28:43;;;;;;;8.32;4.93;;;23.80;99.90;;;;;;5018942;28;20062;-52
2023/09/09 08:31:09;;;;;;;8.48;4.32;;;23.90;99.90;;;;;;5020098;28;20504;-50
2023/09/09 08:33:34;;;;;;;6.82;4.65;;;23.90;99.90;;;;;;5019782;28;20076;-54
2023/09/09 08:36:02;;;;;;;8.27;4.90;;;24.10;99.90;;;;;;5019207;28;20058;-49
2023/09/09 08:38:30;;;;;;;6.55;4.18;;;24.20;99.90;;;;;;5018350;28;20505;-54
2023/09/09 08:41:06;;;;;;;8.85;5.40;;;24.20;99.90;;;;;;5019178;28;20042;-49
2023/09/09 08:43:50;;;;;;;7.25;3.90;;;24.40;99.90;;;;;;5018813;28;20069;-55
2023/09/09 08:46:17;;;;;;;5.10;3.67;;;24.50;99.90;;;;;;5018618;28;20041;-50
2023/09/09 08:48:43;;;;;;;7.95;4.63;;;24.60;99.90;;;;;;5017334;28;20030;-52
2023/09/09 08:51:14;;;;;;;7.40;4.60;;;24.60;99.90;;;;;;5018799;28;20030;-55
2023/09/09 08:53:43;;;;;;;7.45;4.55;;;24.70;99.90;;;;;;5018988;28;20109;-54
2023/09/09 08:56:12;;;;;;;7.30;4.68;;;24.90;99.90;;;;;;5001890;28;20056;-53
2023/09/09 08:58:40;;;;;;;9.25;5.10;;;25.00;99.90;;;;;;5018309;28;20064;-54
2023/09/09 09:01:06;;;;;;;6.55;4.65;;;25.10;99.90;;;;;;5017348;28;20490;-51
2023/09/09 09:03:33;;;;;;;7.10;4.07;;;25.20;99.90;;;;;;5001073;28;20089;-53
2023/09/09 09:06:02;;;;;;;6.80;5.03;;;25.30;99.90;;;;;;5019342;28;20030;-50
2023/09/09 09:08:27;;;;;;;8.73;4.82;;;25.30;99.90;;;;;;5017120;28;20060;-50
2023/09/09 09:10:56;;;;;;;7.53;5.22;;;25.50;99.90;;;;;;5018330;28;20121;-54
2023/09/09 09:13:22;;;;;;;7.72;4.95;;;25.50;99.90;;;;;;5018117;28;20041;-53
2023/09/09 09:15:47;;;;;;;10.70;4.70;;;25.70;99.90;;;;;;5000610;28;20040;-51
2023/09/09 09:18:13;;;;;;;8.32;5.35;;;25.90;99.90;;;;;;5017796;28;20098;-53
2023/09/09 09:20:40;;;;;;;10.93;5.50;;;26.00;99.90;;;;;;4999875;28;20041;-52
2023/09/09 09:23:10;;;;;;;8.82;5.35;;;26.00;99.90;;;;;;5017752;28;20504;-52
2023/09/09 09:25:44;;;;;;;9.88;5.88;;;26.00;99.90;;;;;;5000304;28;20038;-53
2023/09/09 09:28:12;;;;;;;9.95;6.18;;;26.00;99.90;;;;;;5018292;28;20088;-54
2023/09/09 09:30:37;;;;;;;9.13;5.27;;;26.10;99.90;;;;;;5017817;28;20049;-52
2023/09/09 09:33:03;;;;;;;9.07;5.15;;;26.30;99.90;;;;;;5017699;28;20037;-50
2023/09/09 09:35:30;;;;;;;7.13;4.50;;;26.30;99.90;;;;;;5017422;28;20082;-55
2023/09/09 09:38:07;;;;;;;9.48;5.40;;;26.40;99.90;;;;;;5016881;28;20045;-55
2023/09/09 09:40:34;;;;;;;11.73;4.70;;;26.50;99.90;;;;;;5016292;28;20061;-53
2023/09/09 09:43:00;;;;;;;9.68;5.53;;;26.60;99.90;;;;;;5016857;28;20034;-55
2023/09/09 09:45:29;;;;;;;9.70;5.55;;;26.80;99.90;;;;;;5016363;28;20038;-54
2023/09/09 09:47:57;;;;;;;9.43;5.22;;;26.90;99.90;;;;;;5014680;28;20168;-54
2023/09/09 09:50:32;;;;;;;8.80;5.25;;;27.10;99.90;;;;;;5016475;28;20045;-55
2023/09/09 09:53:03;;;;;;;10.55;5.40;;;27.20;99.90;;;;;;5017564;28;20398;-52
2023/09/09 09:55:34;;;;;;;9.80;5.93;;;27.40;99.90;;;;;;5016533;28;20041;-51
2023/09/09 09:58:05;;;;;;;7.57;4.63;;;27.60;99.90;;;;;;5014982;28;20034;-54
2023/09/09 10:00:32;;;;;;;7.32;4.43;;;27.90;99.90;;;;;;5015983;28;20037;-53
2023/09/09 10:03:02;;;;;;;10.35;6.35;;;28.00;99.90;;;;;;5016457;28;20040;-53
2023/09/09 10:05:29;;;;;;;11.05;5.53;;;27.90;99.90;;;;;;4999357;28;20128;-54
2023/09/09 10:08:31;;;;;;;10.32;5.03;;;28.10;99.90;;;;;;5016814;28;20026;-51
2023/09/09 10:11:04;;;;;;;14.90;8.07;;;28.10;99.90;;;;;;5017230;28;20065;-50
2023/09/09 10:13:39;;;;;;;13.85;6.70;;;28.40;99.90;;;;;;5017104;28;20384;-55
2023/09/09 10:16:06;;;;;;;18.48;8.40;;;28.60;99.90;;;;;;5017356;28;20299;-51
2023/09/09 10:18:34;;;;;;;18.63;8.40;;;28.90;99.90;;;;;;5017114;28;20493;-51
2023/09/09 10:21:03;;;;;;;12.38;6.65;;;29.10;99.90;;;;;;5017331;28;20042;-52
2023/09/09 10:23:30;;;;;;;14.40;7.70;;;29.20;99.90;;;;;;5016849;28;20053;-53
2023/09/09 10:25:56;;;;;;;15.00;8.07;;;29.20;99.90;;;;;;5016800;28;20037;-52
2023/09/09 10:28:24;;;;;;;10.93;6.00;;;29.30;99.90;;;;;;5016767;28;20029;-50
2023/09/09 10:30:50;;;;;;;11.40;7.20;;;29.30;99.90;;;;;;5017292;28;20065;-51
2023/09/09 10:33:18;;;;;;;10.52;5.47;;;29.50;99.90;;;;;;5016609;28;20079;-52
2023/09/09 10:35:49;;;;;;;12.47;6.67;;;29.70;99.90;;;;;;5016684;28;20045;-49
2023/09/09 10:38:15;;;;;;;13.30;8.20;;;30.10;99.90;;;;;;5016657;28;20451;-51
2023/09/09 10:40:42;;;;;;;10.70;6.00;;;30.50;99.90;;;;;;5016914;28;20030;-51
2023/09/09 10:43:08;;;;;;;12.55;6.80;;;30.70;99.90;;;;;;5015358;28;20033;-49
2023/09/09 10:45:41;;;;;;;11.45;6.88;;;30.80;99.80;;;;;;5016372;28;20038;-51
2023/09/09 10:48:10;;;;;;;12.90;6.78;;;30.80;99.90;;;;;;5016367;28;20105;-50
2023/09/09 10:50:46;;;;;;;;;;;30.80;99.80;;;;;;5017134;28;20044;-50
2023/09/09 10:53:18;;;;;;;10.35;6.00;;;30.70;99.90;;;;;;4998574;28;19917;-50
2023/09/09 10:55:45;;;;;;;10.50;6.10;;;30.50;99.90;;;;;;5014554;28;20038;-54
2023/09/09 10:58:16;;;;;;;10.27;5.87;;;30.50;99.80;;;;;;5016124;28;20046;-53
2023/09/09 11:00:45;;;;;;;11.98;6.32;;;30.30;99.90;;;;;;5016912;28;20034;-54
2023/09/09 11:03:13;;;;;;;10.65;5.47;;;30.20;99.90;;;;;;5016765;28;20030;-54
2023/09/09 11:06:21;;;;;;;11.82;5.95;;;30.20;99.90;;;;;;5016243;28;20089;-54
2023/09/09 11:08:47;;;;;;;10.32;5.18;;;30.20;99.90;;;;;;4986612;28;20045;-49
2023/09/09 11:11:16;;;;;;;12.52;6.28;;;30.00;99.90;;;;;;5015448;28;20509;-53
2023/09/09 11:13:43;;;;;;;;;;;30.00;99.90;;;;;;5016611;28;20034;-55
2023/09/09 11:16:23;;;;;;;9.13;5.70;;;30.00;99.90;;;;;;5016223;28;19909;-51
2023/09/09 11:18:51;;;;;;;12.27;6.22;;;30.00;99.90;;;;;;5016281;28;20444;-53
2023/09/09 11:21:22;;;;;;;16.23;5.53;;;30.10;99.90;;;;;;5016351;28;20042;-52
2023/09/09 11:23:49;;;;;;;12.27;6.45;;;30.00;99.90;;;;;;5016913;28;20129;-52
2023/09/09 11:26:15;;;;;;;11.18;6.00;;;30.00;99.90;;;;;;5016406;28;20022;-52
2023/09/09 11:28:44;;;;;;;13.65;6.70;;;30.00;99.90;;;;;;5015931;28;20237;-49
2023/09/09 11:31:17;;;;;;;11.13;6.80;;;30.00;99.90;;;;;;5016688;28;20029;-52
2023/09/09 11:33:43;;;;;;;14.38;7.93;;;30.10;99.90;;;;;;5016610;28;20022;-51
2023/09/09 11:36:09;;;;;;;9.77;5.75;;;30.10;99.90;;;;;;4998595;28;20084;-50
2023/09/09 11:38:35;;;;;;;12.73;6.90;;;30.00;99.90;;;;;;5014355;28;20101;-52
2023/09/09 11:41:01;;;;;;;12.43;7.47;;;29.70;99.90;;;;;;4998970;28;20042;-51
2023/09/09 11:43:26;;;;;;;11.05;6.63;;;29.70;99.90;;;;;;5016151;28;20100;-53
2023/09/09 11:45:54;;;;;;;13.65;6.88;;;29.80;99.90;;;;;;5016039;28;20026;-53
2023/09/09 11:48:21;;;;;;;9.63;6.43;;;30.00;99.90;;;;;;5015158;28;20076;-53
2023/09/09 11:50:48;;;;;;;12.15;6.15;;;30.10;99.90;;;;;;4998131;28;20037;-54
2023/09/09 11:53:14;;;;;;;9.02;5.72;;;30.10;99.90;;;;;;5016183;28;20030;-53
2023/09/09 11:55:39;;;;;;;12.07;7.38;;;30.20;99.90;;;;;;5016566;28;20465;-52
2023/09/09 11:58:06;;;;;;;11.98;6.45;;;30.30;99.90;;;;;;5015807;28;20396;-52
2023/09/09 12:00:32;;;;;;;11.30;7.20;;;30.30;99.90;;;;;;5016291;28;20065;-50
2023/09/09 12:02:57;;;;;;;13.32;5.90;;;30.20;99.90;;;;;;4998330;28;20092;-52
2023/09/09 12:05:31;;;;;;;9.70;5.68;;;30.20;99.40;;;;;;5015687;28;20120;-52
2023/09/09 12:08:01;;;;;;;15.25;6.68;;;30.00;99.80;;;;;;4982235;28;20030;-54
2023/09/09 12:10:35;;;;;;;11.63;6.18;;;30.00;99.90;;;;;;5016051;28;20026;-55
2023/09/09 12:13:00;;;;;;;12.55;6.30;;;30.10;99.30;;;;;;4998137;28;20054;-54
2023/09/09 12:15:27;;;;;;;9.35;6.30;;;30.30;99.30;;;;;;5015709;28;20029;-53
2023/09/09 12:17:52;;;;;;;12.52;6.53;;;30.30;99.30;;;;;;5015529;28;20378;-54
2023/09/09 12:20:18;;;;;;;10.38;6.43;;;30.20;99.80;;;;;;4998333;28;20065;-54
2023/09/09 12:22:47;;;;;;;9.90;6.75;;;30.10;99.90;;;;;;5017354;28;20046;-55
2023/09/09 12:25:30;;;;;;;12.70;7.90;;;30.30;99.90;;;;;;5019097;28;20034;-52
2023/09/09 12:27:56;;;;;;;13.45;7.43;;;30.50;99.80;;;;;;5019702;28;20077;-54
2023/09/09 12:30:33;;;;;;;9.63;5.90;;;30.50;99.70;;;;;;5019003;28;20034;-53
2023/09/09 12:33:16;;;;;;;10.05;5.93;;;30.40;99.90;;;;;;5019575;28;20018;-53
2023/09/09 12:35:46;;;;;;;11.10;7.53;;;30.40;99.70;;;;;;5019555;28;20034;-55
2023/09/09 12:38:12;;;;;;;11.95;6.53;;;30.50;99.70;;;;;;5019189;28;20061;-54
2023/09/09 12:41:05;;;;;;;8.02;5.88;;;30.60;98.90;;;;;;5019002;28;20060;-52
2023/09/09 12:43:31;;;;;;;9.02;5.63;;;30.50;98.60;;;;;;5019057;28;20034;-53